Time;durP1;ratioP1;P1;durP2;ratioP2;P2;SDS_P1;SDS_P2;PMS_P1;PMS_P2;Temp;Humidity;BMP_temperature;BMP_pressure;BME280_temperature;BME280_humidity;BME280_pressure;Samples;Min_cycle;Max_cycle;Signal;HPM_P1;HPM_P2
2022/11/13 00:01:28;;;;;;;4.40;2.10;;;23.10;48.00;;;;;;5010752;28;20205;-53
2022/11/13 00:04:01;;;;;;;3.67;2.00;;;23.20;47.80;;;;;;5010492;28;20280;-48
2022/11/13 00:06:32;;;;;;;4.32;1.60;;;23.20;47.50;;;;;;5011434;28;20562;-60
2022/11/13 00:09:03;;;;;;;2.72;1.85;;;23.10;47.20;;;;;;5027964;28;20554;-61
2022/11/13 00:11:33;;;;;;;3.50;1.58;;;23.20;47.10;;;;;;5031062;28;20199;-62
2022/11/13 00:14:06;;;;;;;2.72;1.85;;;23.20;46.70;;;;;;5031153;28;20196;-62
2022/11/13 00:16:37;;;;;;;5.15;1.75;;;23.20;46.70;;;;;;5030037;28;20200;-63
2022/11/13 00:19:08;;;;;;;3.67;1.80;;;23.20;46.50;;;;;;5030995;28;20223;-59
2022/11/13 00:21:38;;;;;;;3.80;2.00;;;23.20;46.80;;;;;;5027505;28;20200;-55
2022/11/13 00:24:10;;;;;;;4.25;2.05;;;23.20;46.60;;;;;;5010307;28;20201;-57
2022/11/13 00:26:41;;;;;;;3.63;1.80;;;23.20;46.50;;;;;;5025759;28;20195;-62
2022/11/13 00:29:14;;;;;;;3.78;1.88;;;23.20;46.60;;;;;;5049896;28;20568;-55
2022/11/13 00:31:45;;;;;;;4.63;1.77;;;23.20;46.60;;;;;;5051120;28;20230;-58
2022/11/13 00:34:15;;;;;;;3.65;1.60;;;23.20;46.80;;;;;;5050480;28;20210;-53
2022/11/13 00:36:46;;;;;;;4.05;2.10;;;23.20;46.60;;;;;;5048006;28;20203;-52
2022/11/13 00:39:17;;;;;;;3.83;1.90;;;23.20;46.70;;;;;;5037017;28;20231;-50
2022/11/13 00:41:48;;;;;;;4.13;1.70;;;23.30;46.80;;;;;;5030962;28;20653;-61
2022/11/13 00:44:20;;;;;;;3.70;2.10;;;23.20;46.70;;;;;;5030476;28;20203;-53
2022/11/13 00:46:51;;;;;;;2.78;1.75;;;23.30;46.70;;;;;;5033640;28;20211;-56
2022/11/13 00:49:22;;;;;;;2.22;1.80;;;23.30;46.70;;;;;;5035024;28;20252;-58
2022/11/13 00:51:52;;;;;;;5.88;2.00;;;23.30;46.70;;;;;;5029084;28;20196;-56
2022/11/13 00:54:23;;;;;;;4.90;2.00;;;23.30;46.80;;;;;;5014503;28;20206;-55
2022/11/13 00:56:54;;;;;;;3.63;2.17;;;23.30;46.90;;;;;;5014977;28;20193;-56
2022/11/13 00:59:26;;;;;;;5.00;1.98;;;23.30;46.90;;;;;;5014813;28;20224;-56
2022/11/13 01:01:57;;;;;;;3.03;1.90;;;23.30;46.90;;;;;;5018089;28;20192;-56
2022/11/13 01:04:29;;;;;;;3.47;2.10;;;23.40;47.00;;;;;;5034809;28;20666;-59
2022/11/13 01:07:00;;;;;;;2.95;1.70;;;23.40;47.10;;;;;;5034627;28;20188;-60
2022/11/13 01:09:31;;;;;;;3.47;1.77;;;23.40;47.20;;;;;;5034396;28;20696;-56
2022/11/13 01:12:02;;;;;;;3.83;1.88;;;23.40;47.30;;;;;;5034730;28;20204;-61
2022/11/13 01:14:34;;;;;;;3.25;2.05;;;23.50;47.30;;;;;;5035036;28;20192;-59
2022/11/13 01:17:05;;;;;;;3.80;2.05;;;23.50;47.40;;;;;;5034836;28;20196;-61
2022/11/13 01:19:36;;;;;;;3.15;1.63;;;23.50;47.30;;;;;;5034024;28;20256;-58
2022/11/13 01:22:06;;;;;;;4.32;2.38;;;23.50;47.30;;;;;;5033859;28;20204;-61
2022/11/13 01:24:37;;;;;;;3.75;1.98;;;23.50;47.30;;;;;;5034122;28;20207;-57
2022/11/13 01:27:08;;;;;;;4.22;2.13;;;23.50;47.20;;;;;;5045452;28;20188;-50
2022/11/13 01:29:41;;;;;;;4.90;1.98;;;23.50;47.20;;;;;;5053846;28;20222;-57
2022/11/13 01:32:11;;;;;;;3.92;1.85;;;23.60;47.20;;;;;;5053781;28;20559;-61
2022/11/13 01:34:42;;;;;;;4.28;2.03;;;23.60;47.30;;;;;;5053889;28;20200;-58
2022/11/13 01:37:13;;;;;;;2.88;1.98;;;23.60;47.20;;;;;;5054103;28;20221;-59
2022/11/13 01:39:44;;;;;;;5.20;2.30;;;23.60;47.20;;;;;;5053653;28;20232;-59
2022/11/13 01:42:14;;;;;;;3.33;2.10;;;23.70;47.20;;;;;;5054005;28;20203;-56
2022/11/13 01:44:55;;;;;;;2.75;1.88;;;23.70;47.30;;;;;;5054078;28;20191;-58
2022/11/13 01:47:26;;;;;;;4.45;1.90;;;23.70;47.40;;;;;;5053873;28;20195;-60
2022/11/13 01:50:00;;;;;;;4.20;2.40;;;23.70;47.40;;;;;;5053218;28;20223;-60
2022/11/13 01:52:33;;;;;;;4.47;2.10;;;23.70;47.30;;;;;;5042800;28;20196;-59
2022/11/13 01:55:07;;;;;;;3.50;2.00;;;23.70;47.20;;;;;;5033585;28;20200;-60
2022/11/13 01:57:38;;;;;;;3.25;2.03;;;23.80;47.20;;;;;;5033406;28;20227;-61
2022/11/13 02:00:12;;;;;;;5.30;2.13;;;23.70;47.10;;;;;;5033905;28;20586;-59
2022/11/13 02:02:43;;;;;;;6.50;2.17;;;23.80;47.20;;;;;;5033881;28;20207;-56
2022/11/13 02:05:13;;;;;;;4.22;2.20;;;23.80;47.10;;;;;;5034310;28;20570;-55
2022/11/13 02:07:44;;;;;;;3.45;1.95;;;23.80;47.00;;;;;;5033726;28;20652;-52
2022/11/13 02:10:15;;;;;;;3.90;2.13;;;23.80;46.90;;;;;;5033438;28;20223;-57
2022/11/13 02:12:49;;;;;;;4.32;2.03;;;23.80;46.90;;;;;;5033403;28;20200;-60
2022/11/13 02:15:25;;;;;;;3.75;2.10;;;23.80;47.10;;;;;;5033248;28;20643;-56
2022/11/13 02:17:58;;;;;;;3.85;1.73;;;23.80;47.00;;;;;;5033263;28;20195;-47
2022/11/13 02:20:44;;;;;;;3.50;2.08;;;23.90;47.10;;;;;;5033022;28;20223;-50
2022/11/13 02:23:22;;;;;;;3.97;1.90;;;23.80;46.80;;;;;;5033156;28;20722;-57
2022/11/13 02:25:56;;;;;;;2.75;2.00;;;23.90;47.10;;;;;;5026303;28;20192;-53
2022/11/13 02:28:27;;;;;;;4.40;2.10;;;23.90;47.00;;;;;;5018061;28;20211;-53
2022/11/13 02:30:58;;;;;;;4.90;2.13;;;23.90;47.10;;;;;;5014361;28;20747;-53
2022/11/13 02:33:31;;;;;;;6.53;2.30;;;23.90;46.90;;;;;;5032862;28;20199;-51
2022/11/13 02:36:02;;;;;;;5.30;1.92;;;23.90;46.90;;;;;;5032060;28;20200;-53
2022/11/13 02:38:36;;;;;;;5.40;2.47;;;23.90;46.90;;;;;;5034975;28;20208;-50
2022/11/13 02:41:09;;;;;;;5.22;2.15;;;23.90;46.80;;;;;;5013085;28;20228;-50
2022/11/13 02:43:40;;;;;;;5.82;1.67;;;23.90;46.70;;;;;;5018679;28;20208;-49
2022/11/13 02:46:11;;;;;;;3.60;2.10;;;23.90;46.80;;;;;;5032554;28;20207;-48
2022/11/13 02:48:42;;;;;;;5.82;2.30;;;23.90;46.80;;;;;;5031687;28;20203;-47
2022/11/13 02:51:13;;;;;;;6.47;2.33;;;23.90;46.90;;;;;;5031987;28;20231;-51
2022/11/13 02:53:43;;;;;;;3.47;2.10;;;23.90;47.00;;;;;;5012143;28;20244;-47
2022/11/13 02:56:16;;;;;;;4.20;2.00;;;23.90;47.00;;;;;;5012665;28;20656;-50
2022/11/13 02:58:47;;;;;;;6.20;2.13;;;23.90;47.10;;;;;;5012212;28;20468;-56
2022/11/13 03:01:18;;;;;;;4.18;2.58;;;24.00;47.30;;;;;;5011847;28;20617;-53
2022/11/13 03:03:49;;;;;;;4.07;2.00;;;24.00;47.40;;;;;;5016933;28;20201;-48
2022/11/13 03:06:20;;;;;;;2.90;1.88;;;24.00;47.40;;;;;;5028143;28;20204;-55
2022/11/13 03:08:51;;;;;;;4.15;2.40;;;24.00;47.40;;;;;;5031427;28;20214;-56
2022/11/13 03:11:23;;;;;;;4.45;1.92;;;24.00;47.40;;;;;;5031881;28;20478;-54
2022/11/13 03:13:54;;;;;;;6.18;2.33;;;24.00;47.30;;;;;;5030876;28;20193;-54
2022/11/13 03:16:25;;;;;;;4.68;2.20;;;24.00;47.40;;;;;;5031701;28;20196;-57
2022/11/13 03:18:58;;;;;;;4.65;2.38;;;24.00;47.40;;;;;;5031388;28;20231;-56
2022/11/13 03:21:28;;;;;;;4.30;2.22;;;24.10;47.40;;;;;;5028784;28;20196;-55
2022/11/13 03:23:59;;;;;;;4.97;2.00;;;24.10;47.30;;;;;;5011416;28;20657;-53
2022/11/13 03:26:32;;;;;;;5.30;2.35;;;24.10;47.20;;;;;;5011244;28;20196;-57
2022/11/13 03:29:02;;;;;;;5.22;2.22;;;24.10;47.20;;;;;;5011498;28;20560;-55
2022/11/13 03:31:34;;;;;;;4.03;2.08;;;24.10;47.20;;;;;;5011672;28;20208;-58
2022/11/13 03:34:04;;;;;;;5.43;2.20;;;24.10;47.10;;;;;;5011755;28;20201;-58
2022/11/13 03:36:36;;;;;;;5.68;2.63;;;24.20;47.20;;;;;;5011038;28;20208;-55
2022/11/13 03:39:06;;;;;;;3.45;2.10;;;24.20;47.20;;;;;;5010736;28;20287;-57
2022/11/13 03:41:39;;;;;;;4.05;2.15;;;24.20;47.20;;;;;;5011551;28;20208;-54
2022/11/13 03:44:10;;;;;;;5.63;2.10;;;24.20;47.20;;;;;;5011058;28;20200;-58
2022/11/13 03:46:40;;;;;;;3.63;1.90;;;24.20;47.20;;;;;;5011599;28;20197;-53
2022/11/13 03:49:11;;;;;;;4.45;2.10;;;24.20;47.10;;;;;;5011663;28;20579;-53
2022/11/13 03:51:42;;;;;;;5.53;2.38;;;24.20;47.10;;;;;;5011695;28;20205;-53
2022/11/13 03:54:13;;;;;;;4.22;2.35;;;24.20;47.10;;;;;;5011413;28;20197;-51
2022/11/13 03:56:45;;;;;;;4.97;2.25;;;24.30;47.10;;;;;;5011328;28;20668;-56
2022/11/13 03:59:16;;;;;;;3.90;2.03;;;24.30;47.00;;;;;;5011251;28;20224;-54
2022/11/13 04:01:47;;;;;;;5.35;2.20;;;24.30;46.90;;;;;;5010931;28;20197;-49
2022/11/13 04:04:26;;;;;;;3.03;1.80;;;24.30;46.90;;;;;;5011826;28;20200;-51
2022/11/13 04:06:57;;;;;;;6.32;2.38;;;24.30;46.90;;;;;;5011095;28;20343;-52
2022/11/13 04:09:27;;;;;;;4.72;2.30;;;24.30;46.90;;;;;;5011306;28;20460;-55
2022/11/13 04:12:00;;;;;;;4.60;2.03;;;24.30;47.00;;;;;;5010472;28;20567;-50
2022/11/13 04:14:31;;;;;;;3.58;2.05;;;24.40;47.60;;;;;;5010869;28;20577;-55
2022/11/13 04:17:01;;;;;;;4.05;2.22;;;24.40;47.00;;;;;;5010933;28;20204;-55
2022/11/13 04:19:33;;;;;;;5.50;2.47;;;24.40;47.00;;;;;;5010888;28;20239;-53
2022/11/13 04:22:04;;;;;;;5.03;2.58;;;24.40;47.00;;;;;;5022983;28;20571;-57
2022/11/13 04:24:35;;;;;;;5.07;2.30;;;24.40;47.00;;;;;;5011129;28;20204;-48
2022/11/13 04:27:07;;;;;;;5.15;2.17;;;24.40;47.00;;;;;;5011716;28;20201;-52
2022/11/13 04:29:38;;;;;;;4.35;2.42;;;24.50;47.00;;;;;;5020475;28;20211;-53
2022/11/13 04:32:09;;;;;;;2.45;2.13;;;24.50;47.00;;;;;;5030682;28;20264;-52
2022/11/13 04:34:40;;;;;;;5.13;2.38;;;24.50;47.00;;;;;;5031465;28;20207;-56
2022/11/13 04:37:10;;;;;;;4.10;2.42;;;24.50;47.00;;;;;;5031298;28;20196;-54
2022/11/13 04:39:42;;;;;;;4.28;2.20;;;24.50;47.00;;;;;;5031018;28;20227;-56
2022/11/13 04:45:02;;;;;;;4.30;2.10;;;24.50;46.90;;;;;;5031446;28;20191;-52
2022/11/13 04:47:32;;;;;;;4.63;2.40;;;24.50;46.90;;;;;;5031190;28;20196;-51
2022/11/13 04:50:03;;;;;;;4.15;2.00;;;24.50;46.90;;;;;;5031181;28;20220;-59
2022/11/13 04:52:34;;;;;;;4.00;2.00;;;24.50;47.10;;;;;;5020047;28;20550;-52
2022/11/13 04:55:05;;;;;;;4.63;2.22;;;24.50;47.10;;;;;;5029587;28;20555;-58
2022/11/13 04:57:38;;;;;;;3.33;2.20;;;24.50;47.20;;;;;;5030467;28;20204;-54
2022/11/13 05:00:10;;;;;;;4.15;2.20;;;24.50;47.10;;;;;;5030387;28;20231;-50
2022/11/13 05:02:41;;;;;;;3.53;2.30;;;24.50;47.10;;;;;;5030565;28;20192;-56
2022/11/13 05:05:12;;;;;;;3.80;2.40;;;24.60;47.10;;;;;;5031387;28;20216;-55
2022/11/13 05:07:43;;;;;;;5.22;2.05;;;24.60;47.10;;;;;;5031081;28;20192;-56
2022/11/13 05:10:14;;;;;;;3.63;2.33;;;24.60;47.10;;;;;;5031078;28;20212;-54
2022/11/13 05:12:47;;;;;;;4.55;2.00;;;24.60;47.10;;;;;;5031236;28;20192;-52
2022/11/13 05:15:18;;;;;;;4.55;2.20;;;24.60;47.00;;;;;;5030126;28;20460;-55
2022/11/13 05:17:51;;;;;;;3.30;1.95;;;24.60;47.00;;;;;;5010779;28;20216;-53
2022/11/13 05:20:22;;;;;;;3.35;2.08;;;24.60;47.00;;;;;;5010797;28;20229;-55
2022/11/13 05:22:53;;;;;;;4.57;2.10;;;24.60;47.00;;;;;;5024876;28;20200;-54
2022/11/13 05:25:23;;;;;;;5.18;2.35;;;24.60;46.90;;;;;;5030779;28;20200;-50
2022/11/13 05:27:58;;;;;;;3.45;2.05;;;24.60;46.90;;;;;;5030884;28;20219;-54
2022/11/13 05:30:29;;;;;;;5.03;1.98;;;24.60;46.90;;;;;;5030557;28;20228;-52
2022/11/13 05:33:00;;;;;;;3.08;1.95;;;24.60;47.00;;;;;;5032996;28;20192;-56
2022/11/13 05:35:30;;;;;;;3.40;2.28;;;24.60;46.90;;;;;;5034198;28;20199;-55
2022/11/13 05:38:04;;;;;;;3.00;1.80;;;24.60;47.00;;;;;;5034266;28;20218;-54
2022/11/13 05:40:34;;;;;;;3.88;1.85;;;24.60;47.00;;;;;;5033679;28;20227;-49
2022/11/13 05:43:07;;;;;;;4.25;2.00;;;24.50;46.90;;;;;;5034448;28;20684;-56
2022/11/13 05:45:38;;;;;;;4.22;2.08;;;24.50;46.90;;;;;;5034190;28;20571;-55
2022/11/13 05:48:08;;;;;;;4.65;2.05;;;24.50;46.80;;;;;;5034101;28;20201;-55
2022/11/13 05:50:40;;;;;;;2.85;1.83;;;24.50;46.80;;;;;;5033929;28;20228;-60
2022/11/13 05:53:10;;;;;;;3.30;2.08;;;24.50;46.80;;;;;;5033911;28;20562;-57
2022/11/13 05:55:41;;;;;;;3.70;1.85;;;24.50;46.80;;;;;;5033682;28;20196;-47
2022/11/13 05:58:14;;;;;;;3.30;2.05;;;24.50;46.80;;;;;;5033633;28;20203;-54
2022/11/13 06:00:45;;;;;;;3.55;1.73;;;24.40;46.80;;;;;;5033322;28;20228;-56
2022/11/13 06:03:16;;;;;;;3.88;1.70;;;24.40;46.80;;;;;;5033472;28;20275;-54
2022/11/13 06:05:46;;;;;;;3.30;2.00;;;24.40;46.90;;;;;;5034351;28;20196;-51
2022/11/13 06:08:17;;;;;;;4.78;2.10;;;24.40;46.90;;;;;;5033612;28;20196;-52
2022/11/13 06:10:48;;;;;;;2.75;1.92;;;24.40;46.90;;;;;;5033616;28;20579;-55
2022/11/13 06:13:21;;;;;;;3.85;2.10;;;24.30;46.80;;;;;;5033539;28;20200;-56
2022/11/13 06:15:51;;;;;;;2.50;1.67;;;24.30;46.80;;;;;;5033651;28;20200;-57
2022/11/13 06:18:25;;;;;;;3.95;1.92;;;24.30;46.90;;;;;;5033514;28;20200;-55
2022/11/13 06:20:55;;;;;;;2.88;1.75;;;24.30;46.90;;;;;;5033583;28;20247;-47
2022/11/13 06:23:26;;;;;;;4.20;1.85;;;24.30;46.90;;;;;;5035962;28;20196;-53
2022/11/13 06:26:03;;;;;;;3.33;1.80;;;24.30;47.00;;;;;;5033558;28;20570;-51
2022/11/13 06:28:36;;;;;;;2.58;1.88;;;24.20;46.90;;;;;;5033282;28;20204;-51
2022/11/13 06:31:08;;;;;;;4.38;2.00;;;24.20;46.90;;;;;;5033699;28;20224;-52
2022/11/13 06:33:40;;;;;;;4.03;1.98;;;24.20;47.00;;;;;;5033500;28;20196;-53
2022/11/13 06:36:13;;;;;;;5.93;2.60;;;24.20;47.00;;;;;;5033381;28;20198;-55
2022/11/13 06:38:46;;;;;;;7.18;2.17;;;24.10;47.00;;;;;;5033053;28;20553;-48
2022/11/13 06:41:18;;;;;;;4.57;2.13;;;24.10;47.00;;;;;;5032711;28;20232;-54
2022/11/13 06:43:51;;;;;;;5.28;1.80;;;24.10;47.00;;;;;;5032056;28;20208;-52
2022/11/13 06:46:23;;;;;;;4.63;1.77;;;24.10;47.10;;;;;;5033136;28;20203;-52
2022/11/13 06:48:54;;;;;;;3.72;1.90;;;24.00;47.10;;;;;;5033031;28;20200;-52
2022/11/13 06:51:32;;;;;;;3.83;2.00;;;24.00;47.20;;;;;;5031061;28;20228;-56
2022/11/13 06:54:03;;;;;;;6.20;2.40;;;24.00;47.20;;;;;;5012615;28;20197;-54
2022/11/13 06:56:34;;;;;;;5.05;2.20;;;24.00;47.20;;;;;;5014511;28;20207;-53
2022/11/13 06:59:06;;;;;;;2.88;1.98;;;24.00;47.20;;;;;;5012679;28;20189;-58
2022/11/13 07:01:37;;;;;;;3.17;1.77;;;24.00;47.20;;;;;;5012686;28;20235;-55
2022/11/13 07:04:08;;;;;;;3.00;1.73;;;23.90;47.20;;;;;;5012734;28;20201;-55
2022/11/13 07:06:38;;;;;;;4.45;1.95;;;23.90;47.20;;;;;;5013097;28;20208;-52
2022/11/13 07:09:09;;;;;;;4.38;2.20;;;23.90;47.20;;;;;;5031674;28;20225;-51
2022/11/13 07:11:40;;;;;;;4.50;2.33;;;23.90;47.20;;;;;;5032260;28;20213;-57
2022/11/13 07:14:14;;;;;;;4.13;2.08;;;23.90;47.30;;;;;;5032087;28;20569;-55
2022/11/13 07:16:44;;;;;;;2.38;1.67;;;23.80;47.20;;;;;;5032136;28;20192;-51
2022/11/13 07:19:15;;;;;;;3.80;1.77;;;23.80;47.30;;;;;;5032449;28;20698;-56
2022/11/13 07:21:46;;;;;;;4.00;1.60;;;23.80;47.30;;;;;;5032142;28;20531;-56
2022/11/13 07:24:17;;;;;;;3.33;1.80;;;23.80;47.40;;;;;;5031744;28;20207;-55
2022/11/13 07:26:47;;;;;;;4.90;2.00;;;23.80;47.40;;;;;;5031973;28;20192;-51
2022/11/13 07:29:20;;;;;;;4.22;1.95;;;23.70;47.40;;;;;;5032266;28;20196;-59
2022/11/13 07:31:52;;;;;;;2.50;1.80;;;23.70;47.40;;;;;;5032226;28;20207;-53
2022/11/13 07:34:23;;;;;;;3.17;1.90;;;23.80;47.50;;;;;;5032357;28;20192;-54
2022/11/13 07:36:54;;;;;;;3.28;1.70;;;23.70;47.40;;;;;;5032226;28;20203;-54
2022/11/13 07:39:24;;;;;;;2.05;1.52;;;23.70;47.40;;;;;;5031906;28;20223;-54
2022/11/13 07:41:55;;;;;;;3.50;1.83;;;23.70;47.40;;;;;;5032160;28;20192;-56
2022/11/13 07:44:28;;;;;;;3.65;2.05;;;23.70;47.40;;;;;;5032371;28;20659;-54
2022/11/13 07:46:59;;;;;;;3.67;1.90;;;23.70;47.50;;;;;;5032136;28;20569;-53
2022/11/13 07:49:30;;;;;;;3.15;2.05;;;23.60;47.50;;;;;;5031691;28;20220;-54
2022/11/13 07:52:01;;;;;;;3.55;1.98;;;23.60;47.50;;;;;;5031366;28;20204;-52
2022/11/13 07:54:31;;;;;;;4.07;1.83;;;23.60;47.50;;;;;;5031706;28;20192;-53
2022/11/13 07:57:02;;;;;;;3.63;2.00;;;23.60;47.60;;;;;;5031400;28;20204;-53
2022/11/13 07:59:35;;;;;;;4.53;1.80;;;23.50;47.50;;;;;;5031151;28;20215;-54
2022/11/13 08:02:06;;;;;;;4.30;1.88;;;23.50;47.50;;;;;;5032322;28;20274;-52
2022/11/13 08:04:37;;;;;;;4.43;2.10;;;23.50;47.60;;;;;;5031830;28;20199;-50
2022/11/13 08:07:08;;;;;;;2.97;1.70;;;23.50;47.60;;;;;;5031737;28;20204;-56
2022/11/13 08:09:39;;;;;;;3.45;1.88;;;23.50;47.60;;;;;;5031552;28;20692;-58
2022/11/13 08:12:10;;;;;;;3.92;1.85;;;23.50;47.60;;;;;;5031258;28;20203;-51
2022/11/13 08:14:42;;;;;;;3.33;1.75;;;23.50;47.60;;;;;;5033891;28;20199;-53
2022/11/13 08:17:13;;;;;;;3.42;2.10;;;23.50;47.70;;;;;;5031426;28;20199;-54
2022/11/13 08:19:44;;;;;;;2.83;2.15;;;23.40;47.60;;;;;;5031442;28;20223;-53
2022/11/13 08:22:15;;;;;;;4.00;2.22;;;23.40;47.60;;;;;;5022902;28;20247;-53
2022/11/13 08:24:45;;;;;;;2.83;1.55;;;23.40;47.60;;;;;;5011387;28;20671;-52
2022/11/13 08:27:16;;;;;;;3.30;1.70;;;23.40;47.60;;;;;;5011908;28;20197;-58
2022/11/13 08:29:49;;;;;;;3.95;1.92;;;23.40;47.70;;;;;;5011811;28;20680;-53
2022/11/13 08:32:21;;;;;;;3.85;1.85;;;23.40;47.70;;;;;;5011730;28;20205;-54
2022/11/13 08:34:52;;;;;;;3.30;1.67;;;23.30;47.70;;;;;;5011572;28;20196;-53
2022/11/13 08:37:22;;;;;;;2.28;1.63;;;23.30;47.70;;;;;;5011777;28;20566;-52
2022/11/13 08:39:53;;;;;;;2.95;1.70;;;23.30;47.70;;;;;;5011235;28;20220;-57
2022/11/13 08:42:24;;;;;;;2.45;1.48;;;23.30;47.70;;;;;;5011269;28;20569;-56
2022/11/13 08:44:56;;;;;;;2.63;1.63;;;23.30;47.70;;;;;;5011363;28;20555;-53
2022/11/13 08:47:28;;;;;;;2.63;1.42;;;23.30;47.80;;;;;;5011720;28;20196;-51
2022/11/13 08:49:59;;;;;;;1.65;1.38;;;23.30;47.70;;;;;;5011051;28;20220;-53
2022/11/13 08:52:29;;;;;;;3.38;1.70;;;23.20;47.70;;;;;;5010740;28;20219;-54
2022/11/13 08:55:00;;;;;;;5.72;2.22;;;23.20;47.70;;;;;;5010896;28;20601;-57
2022/11/13 08:57:31;;;;;;;3.10;1.67;;;23.20;47.80;;;;;;5018056;28;20184;-55
2022/11/13 09:00:04;;;;;;;2.28;1.48;;;23.10;47.70;;;;;;5031044;28;20216;-55
2022/11/13 09:02:35;;;;;;;3.13;1.83;;;23.20;47.80;;;;;;5031335;28;20197;-55
2022/11/13 09:05:06;;;;;;;3.05;1.90;;;23.10;47.80;;;;;;5030963;28;20566;-52
2022/11/13 09:07:39;;;;;;;2.90;1.70;;;23.10;47.80;;;;;;5032604;28;20196;-53
2022/11/13 09:10:10;;;;;;;2.90;1.45;;;23.10;47.80;;;;;;5033746;28;20216;-51
2022/11/13 09:12:41;;;;;;;3.17;1.70;;;23.10;47.80;;;;;;5034589;28;20572;-55
2022/11/13 09:15:14;;;;;;;2.47;1.58;;;23.10;47.90;;;;;;5034137;28;20196;-51
2022/11/13 09:17:45;;;;;;;2.67;1.50;;;23.10;47.90;;;;;;5034172;28;20202;-47
2022/11/13 09:20:17;;;;;;;2.78;1.60;;;23.00;47.90;;;;;;5034630;28;20231;-49
2022/11/13 09:22:48;;;;;;;2.05;1.60;;;23.00;47.90;;;;;;5034291;28;20247;-47
2022/11/13 09:25:19;;;;;;;2.58;1.83;;;23.00;47.90;;;;;;5034191;28;20552;-47
2022/11/13 09:27:56;;;;;;;2.58;1.45;;;23.00;47.90;;;;;;5034283;28;20196;-46
2022/11/13 09:30:29;;;;;;;2.55;1.65;;;23.00;48.00;;;;;;5034465;28;20281;-49
2022/11/13 09:33:01;;;;;;;2.20;1.60;;;23.00;48.00;;;;;;5034805;28;20219;-49
2022/11/13 09:35:36;;;;;;;3.05;1.70;;;23.00;48.00;;;;;;5023435;28;20197;-50
2022/11/13 09:38:08;;;;;;;3.65;1.73;;;23.00;48.00;;;;;;5014238;28;20200;-49
2022/11/13 09:40:43;;;;;;;2.60;1.80;;;22.90;47.90;;;;;;5014277;28;20359;-47
2022/11/13 09:43:23;;;;;;;3.38;1.70;;;22.90;48.00;;;;;;5014552;28;20243;-53
2022/11/13 09:45:59;;;;;;;2.45;1.80;;;22.90;48.00;;;;;;5014549;28;20538;-47
2022/11/13 09:48:35;;;;;;;2.33;1.50;;;22.90;48.10;;;;;;5014335;28;20648;-54
2022/11/13 09:51:12;;;;;;;3.05;1.85;;;22.90;48.10;;;;;;5014379;28;20225;-47
2022/11/13 09:53:44;;;;;;;2.70;1.63;;;22.90;48.00;;;;;;5014496;28;20196;-49
2022/11/13 09:56:26;;;;;;;1.50;1.40;;;22.80;48.00;;;;;;5014454;28;20623;-48
2022/11/13 09:59:08;;;;;;;4.15;1.67;;;22.90;48.10;;;;;;5014514;28;20567;-49
2022/11/13 10:01:51;;;;;;;1.85;1.38;;;22.80;48.00;;;;;;5014567;28;20220;-48
2022/11/13 10:04:28;;;;;;;2.25;1.60;;;22.80;48.10;;;;;;5014078;28;20210;-50
2022/11/13 10:07:10;;;;;;;2.90;1.60;;;22.80;48.10;;;;;;5013949;28;20208;-53
2022/11/13 10:10:00;;;;;;;1.73;1.45;;;22.80;48.10;;;;;;5014661;28;20720;-58
2022/11/13 10:12:33;;;;;;;2.13;1.27;;;22.70;48.10;;;;;;5013826;28;20204;-55
2022/11/13 10:15:06;;;;;;;2.50;1.55;;;22.80;48.10;;;;;;5013650;28;20560;-54
2022/11/13 10:17:41;;;;;;;2.38;1.45;;;22.70;48.10;;;;;;5013881;28;20263;-56
2022/11/13 10:20:17;;;;;;;2.45;1.40;;;22.70;48.10;;;;;;5017165;28;20212;-54
2022/11/13 10:22:52;;;;;;;2.20;1.58;;;22.70;48.20;;;;;;5034281;28;20223;-51
2022/11/13 10:25:27;;;;;;;2.58;1.50;;;22.70;48.10;;;;;;5033072;28;20202;-54
2022/11/13 10:28:00;;;;;;;1.90;1.58;;;22.60;48.20;;;;;;5033240;28;20204;-51
2022/11/13 10:30:31;;;;;;;2.83;1.55;;;22.60;48.10;;;;;;5033634;28;20282;-52
2022/11/13 10:33:08;;;;;;;2.17;1.50;;;22.60;48.10;;;;;;5033661;28;20200;-54
2022/11/13 10:35:56;;;;;;;2.15;1.40;;;22.60;48.10;;;;;;5022748;28;20204;-54
2022/11/13 10:38:30;;;;;;;2.33;1.80;;;22.60;48.10;;;;;;5013019;28;20209;-51
2022/11/13 10:41:10;;;;;;;2.58;1.70;;;22.60;48.20;;;;;;5012681;28;20227;-47
2022/11/13 10:44:08;;;;;;;1.75;1.60;;;22.60;48.20;;;;;;5012780;28;20211;-48
2022/11/13 10:46:38;;;;;;;1.55;1.20;;;22.60;48.20;;;;;;5013281;28;20200;-53
2022/11/13 10:49:23;;;;;;;1.40;1.15;;;22.50;48.20;;;;;;5012917;28;20197;-52
2022/11/13 10:51:59;;;;;;;2.22;1.50;;;22.50;48.20;;;;;;5013363;28;20196;-48
2022/11/13 10:54:31;;;;;;;1.70;1.20;;;22.50;48.20;;;;;;5018413;28;20190;-48
2022/11/13 10:57:03;;;;;;;1.70;1.27;;;22.50;48.20;;;;;;5032394;28;20196;-51
2022/11/13 10:59:42;;;;;;;1.88;1.33;;;22.50;48.20;;;;;;5032200;28;20252;-50
2022/11/13 11:02:20;;;;;;;2.17;1.40;;;22.40;48.20;;;;;;5032474;28;20694;-48
2022/11/13 11:05:02;;;;;;;1.60;1.25;;;22.40;48.20;;;;;;5032476;28;20211;-49
2022/11/13 11:07:35;;;;;;;1.77;1.30;;;22.40;48.20;;;;;;5032291;28;20279;-47
2022/11/13 11:10:08;;;;;;;2.28;1.40;;;22.40;48.20;;;;;;5032725;28;20227;-49
2022/11/13 11:12:39;;;;;;;2.40;1.58;;;22.40;48.20;;;;;;5031867;28;20227;-49
2022/11/13 11:15:22;;;;;;;2.25;1.40;;;22.40;48.20;;;;;;5032020;28;20200;-50
2022/11/13 11:17:59;;;;;;;1.70;1.30;;;22.40;48.20;;;;;;5031747;28;20196;-46
2022/11/13 11:20:43;;;;;;;2.42;1.40;;;22.40;48.30;;;;;;5032227;28;20224;-50
2022/11/13 11:23:26;;;;;;;3.20;1.55;;;22.30;48.30;;;;;;5032826;28;20208;-49
2022/11/13 11:26:02;;;;;;;1.83;1.45;;;22.30;48.30;;;;;;5032634;28;20283;-47
2022/11/13 11:28:37;;;;;;;2.53;1.30;;;22.30;48.30;;;;;;5032131;28;20277;-47
2022/11/13 11:31:14;;;;;;;1.90;1.30;;;22.30;48.40;;;;;;5031292;28;20231;-48
2022/11/13 11:33:52;;;;;;;1.70;1.20;;;22.30;48.40;;;;;;5031942;28;20195;-51
2022/11/13 11:36:32;;;;;;;1.48;1.20;;;22.20;48.30;;;;;;5031703;28;20663;-52
2022/11/13 11:39:14;;;;;;;1.40;1.10;;;22.20;48.40;;;;;;5031624;28;20200;-51
2022/11/13 11:41:52;;;;;;;1.42;1.10;;;22.20;48.30;;;;;;5031384;28;20235;-48
2022/11/13 11:44:28;;;;;;;1.95;1.25;;;22.20;48.30;;;;;;5032350;28;20188;-49
2022/11/13 11:46:58;;;;;;;2.00;1.40;;;22.20;48.30;;;;;;5032173;28;20196;-48
2022/11/13 11:49:29;;;;;;;1.88;1.27;;;22.20;48.30;;;;;;5031608;28;20216;-49
2022/11/13 11:52:14;;;;;;;1.92;1.33;;;22.20;48.30;;;;;;5031688;28;20199;-49
2022/11/13 11:54:51;;;;;;;2.00;1.20;;;22.20;48.40;;;;;;5031983;28;20196;-51
2022/11/13 11:57:35;;;;;;;1.45;1.23;;;22.20;48.40;;;;;;5031826;28;20718;-48
2022/11/13 12:00:12;;;;;;;3.10;1.20;;;22.20;48.40;;;;;;5031698;28;20592;-48
2022/11/13 12:03:15;;;;;;;2.00;1.27;;;22.10;48.40;;;;;;5031981;28;20238;-55
2022/11/13 12:05:57;;;;;;;1.65;1.25;;;22.10;48.50;;;;;;5031539;28;20575;-53
2022/11/13 12:08:38;;;;;;;2.42;1.55;;;22.10;48.50;;;;;;5031752;28;20208;-51
2022/11/13 12:11:19;;;;;;;1.42;1.33;;;22.10;48.50;;;;;;5031541;28;20269;-56
2022/11/13 12:14:00;;;;;;;2.25;1.33;;;22.00;48.40;;;;;;5031241;28;20606;-49
2022/11/13 12:16:39;;;;;;;2.03;1.20;;;22.10;48.50;;;;;;5031311;28;20192;-52
2022/11/13 12:19:18;;;;;;;1.88;1.25;;;22.00;48.40;;;;;;5031360;28;20200;-47
2022/11/13 12:21:57;;;;;;;2.13;1.38;;;22.00;48.40;;;;;;5031561;28;20627;-49
2022/11/13 12:25:07;;;;;;;2.10;1.35;;;22.00;48.40;;;;;;5011111;28;20203;-49
2022/11/13 12:27:44;;;;;;;1.40;1.10;;;22.00;48.40;;;;;;5009518;28;20231;-52
2022/11/13 12:30:20;;;;;;;1.85;1.40;;;22.00;48.40;;;;;;5011398;28;20579;-56
2022/11/13 12:33:06;;;;;;;1.67;1.23;;;22.00;48.50;;;;;;5011875;28;20207;-49
2022/11/13 12:35:38;;;;;;;1.70;1.27;;;22.00;48.60;;;;;;5022113;28;20210;-49
2022/11/13 12:38:19;;;;;;;2.00;1.45;;;22.00;48.60;;;;;;5031366;28;20202;-52
2022/11/13 12:41:03;;;;;;;1.65;1.23;;;21.90;48.60;;;;;;5031795;28;20710;-49
2022/11/13 12:44:07;;;;;;;1.42;1.30;;;21.90;48.60;;;;;;5035302;28;20200;-49
2022/11/13 12:46:39;;;;;;;1.85;1.30;;;21.90;48.60;;;;;;5003800;28;20566;-49
2022/11/13 12:49:29;;;;;;;1.65;1.30;;;21.90;48.60;;;;;;5034986;28;20196;-51
2022/11/13 12:52:01;;;;;;;1.40;1.30;;;21.90;48.60;;;;;;5034685;28;20195;-47
2022/11/13 12:54:33;;;;;;;2.90;1.30;;;21.90;48.60;;;;;;5035236;28;20196;-51
2022/11/13 12:57:20;;;;;;;3.15;1.45;;;21.80;48.50;;;;;;5034485;28;20196;-49
2022/11/13 12:59:54;;;;;;;2.75;1.40;;;21.80;48.50;;;;;;5034484;28;20216;-49
2022/11/13 13:02:50;;;;;;;1.55;1.27;;;21.90;48.60;;;;;;5033558;28;20219;-52
2022/11/13 13:05:33;;;;;;;2.05;1.48;;;21.80;48.60;;;;;;5034383;28;20208;-48
2022/11/13 13:08:31;;;;;;;1.85;1.25;;;21.80;48.60;;;;;;5035341;28;20200;-48
2022/11/13 13:11:19;;;;;;;2.00;1.42;;;21.80;48.60;;;;;;5034329;28;20626;-52
2022/11/13 13:14:01;;;;;;;2.05;1.20;;;21.80;48.60;;;;;;5034139;28;20204;-50
2022/11/13 13:16:32;;;;;;;2.53;1.33;;;21.80;48.70;;;;;;5034654;28;20196;-52
2022/11/13 13:19:24;;;;;;;1.92;1.02;;;21.70;48.70;;;;;;5034398;28;20683;-55
2022/11/13 13:21:56;;;;;;;1.48;1.17;;;21.70;48.70;;;;;;5034903;28;20216;-55
2022/11/13 13:24:33;;;;;;;1.80;1.30;;;21.70;48.70;;;;;;5034979;28;20203;-58